createdAt,value
2022-10-20T05:07:21.924Z,26.90
2022-10-20T05:13:07.199Z,22.05
2022-10-20T05:15:38.945Z,26.92
2022-10-20T05:18:40.921Z,23.77
2022-10-20T05:21:26.888Z,20.92
2022-10-20T05:23:57.915Z,22.00
2022-10-20T05:26:29.028Z,24.67
2022-10-20T05:28:57.230Z,24.95
2022-10-20T05:31:25.434Z,23.15
2022-10-20T05:33:57.988Z,20.95
2022-10-20T05:37:07.644Z,22.25
2022-10-20T05:39:43.510Z,24.20
2022-10-20T06:33:18.587Z,15.77
2022-10-20T06:39:35.761Z,12.45
2022-10-20T06:54:24.621Z,14.30
2022-10-20T06:57:51.424Z,11.80
2022-10-20T07:00:21.373Z,14.65
2022-10-20T07:02:49.506Z,11.45
2022-10-20T07:05:20.079Z,10.82
2022-10-20T07:07:59.549Z,12.55
2022-10-20T07:10:38.350Z,13.23
2022-10-20T07:13:45.876Z,10.23
2022-10-20T07:17:21.399Z,10.82
2022-10-20T07:27:46.544Z,12.40
2022-10-20T07:31:35.873Z,11.73
2022-10-20T07:53:58.175Z,10.82
2022-10-20T08:12:36.986Z,11.60
2022-10-20T08:21:52.594Z,8.32
2022-10-20T08:25:07.130Z,10.75
2022-10-20T08:27:41.749Z,9.40
2022-10-20T08:30:26.991Z,9.43
2022-10-20T08:48:58.280Z,8.57
2022-10-20T09:05:30.395Z,8.23
2022-10-20T09:07:59.325Z,7.38
2022-10-20T09:10:37.498Z,7.68
2022-10-20T09:13:12.879Z,7.95
2022-10-20T09:15:41.633Z,11.73
2022-10-20T09:18:15.461Z,9.93
2022-10-20T09:21:45.237Z,8.02
2022-10-20T09:24:16.132Z,7.07
2022-10-20T09:27:00.601Z,7.18
2022-10-20T09:29:41.762Z,8.05
2022-10-20T09:35:41.542Z,8.00
2022-10-20T09:39:00.209Z,7.32
2022-10-20T09:42:54.420Z,8.13
2022-10-20T09:45:54.584Z,7.22
2022-10-20T09:48:43.454Z,6.70
2022-10-20T09:51:37.324Z,9.07
2022-10-20T09:54:51.099Z,6.60
2022-10-20T10:09:35.889Z,6.75
2022-10-20T10:12:30.804Z,42.22
2022-10-20T10:19:00.906Z,10.13
2022-10-20T10:25:14.312Z,6.25
2022-10-20T10:28:37.480Z,6.18
2022-10-20T10:32:03.843Z,7.60
2022-10-20T10:35:09.009Z,5.90
2022-10-20T10:37:39.620Z,6.78
2022-10-20T10:40:16.382Z,8.30
2022-10-20T10:47:08.772Z,7.07
2022-10-20T10:56:49.484Z,6.50
2022-10-20T11:00:13.111Z,7.88
2022-10-20T11:03:37.695Z,6.30
2022-10-20T11:18:18.607Z,6.93
2022-10-20T11:21:33.757Z,9.85
2022-10-20T11:36:14.264Z,7.93
2022-10-20T11:58:39.265Z,6.93
2022-10-20T13:08:22.373Z,9.77
2022-10-20T13:15:16.606Z,9.85
2022-10-20T13:22:06.081Z,10.13
2022-10-20T13:40:12.335Z,12.00
2022-10-20T13:42:59.844Z,7.07
2022-10-20T13:45:39.522Z,10.32
2022-10-20T13:48:23.864Z,9.05
2022-10-20T13:50:59.797Z,6.72
2022-10-20T13:53:32.332Z,5.60
2022-10-20T13:56:06.895Z,8.43
2022-10-20T13:58:36.647Z,9.35
2022-10-20T14:01:07.046Z,6.82
2022-10-20T14:03:42.902Z,9.18
2022-10-20T14:06:35.801Z,8.98
2022-10-20T14:09:13.356Z,10.38
2022-10-20T14:11:42.986Z,11.98
2022-10-20T14:14:16.881Z,11.35
2022-10-20T14:16:53.435Z,7.55
2022-10-20T14:19:27.652Z,15.05
2022-10-20T14:21:57.344Z,12.50
2022-10-20T14:24:33.103Z,13.45
2022-10-20T14:27:02.609Z,12.93
2022-10-20T14:29:35.171Z,14.90
2022-10-20T14:32:06.767Z,13.23
2022-10-20T14:34:37.214Z,13.55
2022-10-20T14:37:20.375Z,15.13
2022-10-20T14:39:52.316Z,13.65
2022-10-20T14:42:24.998Z,15.52
2022-10-20T14:44:57.050Z,14.30
2022-10-20T14:47:34.359Z,16.13
2022-10-20T14:50:03.069Z,14.40
2022-10-20T14:52:35.768Z,16.70
2022-10-20T14:55:04.387Z,15.57
2022-10-20T14:57:44.409Z,14.93
2022-10-20T15:00:37.078Z,15.20
2022-10-20T15:03:07.917Z,13.70
2022-10-20T15:05:42.034Z,15.05
2022-10-20T15:08:25.054Z,12.40
2022-10-20T15:10:55.890Z,13.68
2022-10-20T15:13:27.991Z,12.48
2022-10-20T15:15:59.195Z,15.75
2022-10-20T15:18:30.356Z,12.13
2022-10-20T15:20:58.629Z,16.13
2022-10-20T15:23:27.972Z,14.38
2022-10-20T15:25:59.653Z,12.73
2022-10-20T15:28:38.084Z,28.70
2022-10-20T15:31:19.048Z,21.75
2022-10-20T15:33:49.546Z,22.02
2022-10-20T15:43:31.487Z,16.67
2022-10-20T16:04:48.727Z,13.45
2022-10-20T16:35:36.018Z,13.98
2022-10-20T16:49:36.790Z,13.02
2022-10-20T17:06:41.752Z,12.18
2022-10-20T17:10:12.138Z,12.15
2022-10-20T17:12:41.590Z,13.40
2022-10-20T17:15:10.813Z,20.02
2022-10-20T17:17:39.419Z,13.80
2022-10-20T17:20:08.802Z,14.13
2022-10-20T17:22:36.981Z,16.17
2022-10-20T17:25:06.042Z,19.75
2022-10-20T17:27:34.176Z,13.70
2022-10-20T17:30:03.741Z,16.30
2022-10-20T17:32:31.790Z,14.23
2022-10-20T17:34:59.882Z,16.40
2022-10-20T17:37:31.110Z,15.23
2022-10-20T17:39:59.300Z,16.00
2022-10-20T17:42:27.351Z,14.93
2022-10-20T17:44:57.505Z,12.27
2022-10-20T17:47:27.103Z,19.65
2022-10-20T17:49:55.202Z,13.38
2022-10-20T17:52:26.283Z,12.77
2022-10-20T17:54:54.408Z,13.80
2022-10-20T17:57:22.444Z,15.50
2022-10-20T17:59:53.278Z,17.92
2022-10-20T18:02:24.012Z,18.45
2022-10-20T18:04:53.536Z,18.58
2022-10-20T18:07:21.620Z,15.48
2022-10-20T18:09:51.119Z,17.08
2022-10-20T18:12:19.282Z,13.50
2022-10-20T18:14:47.346Z,15.90
2022-10-20T18:17:15.511Z,13.52
2022-10-20T18:19:45.597Z,13.63
2022-10-20T18:22:15.178Z,17.10
2022-10-20T18:24:43.328Z,13.98
2022-10-20T18:27:11.523Z,18.25
2022-10-20T18:29:39.907Z,14.05
2022-10-20T18:32:08.092Z,15.75
2022-10-20T18:34:38.525Z,16.55
2022-10-20T18:37:07.189Z,17.60
2022-10-20T18:39:36.613Z,13.60
2022-10-20T18:42:05.084Z,17.63
2022-10-20T18:44:34.000Z,17.23
2022-10-20T18:47:02.113Z,17.00
2022-10-20T18:49:30.452Z,18.30
2022-10-20T18:51:58.697Z,17.42
2022-10-20T18:54:28.306Z,18.70
2022-10-20T18:56:58.017Z,19.63
2022-10-20T18:59:26.538Z,15.80
2022-10-20T19:01:54.649Z,18.73
2022-10-20T19:04:25.243Z,21.10
2022-10-20T19:06:53.470Z,19.90
2022-10-20T19:09:24.920Z,19.40
2022-10-20T19:11:54.975Z,15.02
2022-10-20T19:14:37.727Z,18.25
2022-10-20T19:17:09.099Z,18.30
2022-10-20T19:19:37.456Z,21.85
2022-10-20T19:22:09.115Z,19.92
2022-10-20T19:24:44.680Z,19.45
2022-10-20T19:27:26.256Z,16.20
2022-10-20T19:33:30.978Z,20.52
2022-10-20T19:37:16.344Z,20.67
2022-10-20T19:43:39.097Z,18.95
2022-10-20T19:46:16.882Z,21.45
2022-10-20T19:48:49.550Z,21.08
2022-10-20T19:51:26.547Z,16.77
2022-10-20T19:53:59.337Z,24.15
2022-10-20T19:56:32.163Z,19.77
2022-10-20T19:59:11.173Z,19.00
2022-10-20T20:02:42.525Z,21.35
2022-10-20T20:12:55.825Z,22.08
2022-10-20T20:15:31.470Z,23.75
2022-10-20T20:17:59.702Z,20.42
2022-10-20T20:20:30.869Z,18.85
2022-10-20T20:22:59.701Z,17.52
2022-10-20T20:25:34.310Z,19.42
2022-10-20T20:28:03.017Z,19.13
2022-10-20T20:30:39.563Z,25.88
2022-10-20T20:33:11.301Z,27.60
2022-10-20T20:35:50.207Z,16.88
2022-10-20T20:38:29.923Z,17.25
2022-10-20T20:41:12.525Z,18.08
2022-10-20T20:43:46.577Z,19.00
2022-10-20T20:46:17.172Z,20.73
2022-10-20T20:48:47.833Z,22.17
2022-10-20T20:51:20.896Z,22.95
2022-10-20T20:53:50.688Z,16.35
2022-10-20T20:56:36.156Z,20.35
2022-10-20T20:59:09.860Z,22.88
2022-10-20T21:01:49.529Z,17.33
2022-10-20T21:04:34.536Z,16.52
2022-10-20T21:10:35.771Z,14.30
2022-10-20T21:13:05.736Z,14.88
2022-10-20T21:15:37.168Z,15.82
2022-10-20T21:18:07.681Z,14.27
2022-10-20T21:20:37.259Z,14.60
2022-10-20T21:23:05.788Z,15.95
2022-10-20T21:25:36.919Z,13.93
2022-10-20T21:28:12.788Z,13.23
2022-10-20T21:30:55.267Z,15.48
2022-10-20T21:33:34.088Z,14.20
2022-10-20T21:36:15.221Z,12.68
2022-10-20T21:38:47.113Z,14.73
2022-10-20T21:41:20.257Z,15.75
2022-10-20T21:43:59.695Z,14.68
2022-10-20T21:46:44.297Z,11.57
2022-10-20T21:49:15.476Z,11.07
2022-10-20T21:51:55.239Z,12.32
2022-10-20T21:54:25.309Z,14.35
2022-10-20T21:56:54.635Z,11.98
2022-10-20T21:59:26.213Z,13.52
2022-10-20T22:01:55.906Z,13.68
2022-10-20T22:04:26.899Z,13.32
2022-10-20T22:06:56.762Z,12.00
2022-10-20T22:09:28.339Z,14.40
2022-10-20T22:11:59.120Z,13.98
2022-10-20T22:14:33.217Z,15.27
2022-10-20T22:17:01.801Z,13.82
2022-10-20T22:19:34.836Z,14.32
2022-10-20T22:22:03.213Z,11.90
2022-10-20T22:24:32.031Z,12.57
2022-10-20T22:27:31.790Z,11.50
2022-10-20T22:34:15.497Z,16.08
2022-10-20T22:37:08.086Z,15.50
2022-10-20T22:43:30.411Z,13.38
2022-10-20T22:46:27.292Z,13.45
2022-10-20T22:49:46.073Z,16.48
2022-10-20T22:52:41.290Z,15.48
2022-10-20T22:55:41.351Z,19.73
2022-10-20T23:09:10.758Z,13.07
2022-10-20T23:15:55.712Z,11.18
2022-10-20T23:22:18.283Z,12.82
2022-10-20T23:25:20.751Z,15.20
2022-10-20T23:31:52.251Z,12.38
2022-10-20T23:41:08.537Z,14.02
2022-10-20T23:44:10.778Z,13.82
2022-10-20T23:46:54.663Z,15.00
2022-10-20T23:50:08.711Z,8.68
2022-10-20T23:52:57.949Z,13.48
2022-10-20T23:55:50.165Z,12.75
2022-10-20T23:58:28.454Z,12.23
